createdAt,value
2015-10-23T00:00:27.187Z,11.2
2015-10-23T00:01:27.143Z,11.3
2015-10-23T00:02:27.099Z,11.3
2015-10-23T00:03:27.040Z,11.3
2015-10-23T00:04:26.995Z,11.3
2015-10-23T00:05:26.935Z,11.3
2015-10-23T00:06:26.891Z,11.3
2015-10-23T00:07:26.831Z,11.3
2015-10-23T00:08:26.771Z,11.3
2015-10-23T00:09:26.727Z,11.3
2015-10-23T00:10:26.683Z,11.2
2015-10-23T00:11:26.623Z,11.2
2015-10-23T00:12:26.564Z,11.3
2015-10-23T00:13:26.519Z,11.3
2015-10-23T00:14:26.459Z,11.3
2015-10-23T00:15:26.400Z,11.2
2015-10-23T00:16:26.356Z,11.2
2015-10-23T00:17:26.312Z,11.2
2015-10-23T00:18:26.251Z,11.2
2015-10-23T00:19:26.191Z,11.2
2015-10-23T00:20:26.148Z,11.2
2015-10-23T00:21:26.089Z,11.2
2015-10-23T00:22:26.044Z,11.2
2015-10-23T00:23:25.984Z,11.2
2015-10-23T00:24:25.924Z,11.2
2015-10-23T00:25:25.880Z,11.2
2015-10-23T00:26:25.820Z,11.2
2015-10-23T00:27:25.775Z,11.2
2015-10-23T00:28:25.717Z,11.2
2015-10-23T00:29:25.656Z,11.2
2015-10-23T00:30:25.613Z,11.2
2015-10-23T00:31:25.553Z,11.2
2015-10-23T00:32:25.508Z,11.1
2015-10-23T00:33:25.449Z,11.1
2015-10-23T00:34:25.404Z,11.1
2015-10-23T00:35:25.345Z,11.1
2015-10-23T00:36:25.300Z,11.1
2015-10-23T00:37:25.241Z,11.1
2015-10-23T00:38:25.180Z,11
2015-10-23T00:39:25.138Z,11
2015-10-23T00:40:25.077Z,11
2015-10-23T00:41:25.033Z,11
2015-10-23T00:42:24.973Z,10.9
2015-10-23T00:43:24.929Z,10.9
2015-10-23T00:44:24.869Z,10.9
2015-10-23T00:45:24.825Z,10.9
2015-10-23T00:46:24.765Z,10.8
2015-10-23T00:47:24.721Z,10.9
2015-10-23T00:48:24.662Z,10.9
2015-10-23T00:49:24.601Z,10.8
2015-10-23T00:50:24.542Z,10.8
2015-10-23T00:51:24.498Z,10.8
2015-10-23T00:52:24.438Z,10.8
2015-10-23T00:53:24.394Z,10.8
2015-10-23T00:54:24.349Z,10.8
2015-10-23T00:55:24.290Z,10.8
2015-10-23T00:56:24.230Z,10.8
2015-10-23T00:57:24.248Z,10.7
2015-10-23T00:58:24.126Z,10.7
2015-10-23T00:59:24.081Z,10.8
2015-10-23T01:00:24.022Z,10.7
2015-10-23T01:01:23.962Z,10.7
2015-10-23T01:02:23.918Z,10.7
2015-10-23T01:03:23.859Z,10.7
2015-10-23T01:04:23.814Z,10.6
2015-10-23T01:05:23.754Z,10.6
2015-10-23T01:06:23.710Z,10.6
2015-10-23T01:07:23.647Z,10.6
2015-10-23T01:08:23.604Z,10.7
2015-10-23T01:09:23.545Z,10.6
2015-10-23T01:10:23.500Z,10.6
2015-10-23T01:11:23.440Z,10.6
2015-10-23T01:12:23.381Z,10.6
2015-10-23T01:13:23.336Z,10.6
2015-10-23T01:14:23.292Z,10.6
2015-10-23T01:15:23.233Z,10.6
2015-10-23T01:16:23.189Z,10.6
2015-10-23T01:17:23.128Z,10.6
2015-10-23T01:18:26.116Z,10.6
2015-10-23T01:19:23.024Z,10.5
2015-10-23T01:20:22.964Z,10.5
2015-10-23T01:21:22.920Z,10.5
2015-10-23T01:22:22.861Z,10.5
2015-10-23T01:23:22.816Z,10.5
2015-10-23T01:24:22.757Z,10.5
2015-10-23T01:25:22.712Z,10.5
2015-10-23T01:26:22.653Z,10.5
2015-10-23T01:27:22.593Z,10.5
2015-10-23T01:28:22.548Z,10.5
2015-10-23T01:29:22.488Z,10.4
2015-10-23T01:30:22.444Z,10.5
2015-10-23T01:31:22.385Z,10.5
2015-10-23T01:32:22.341Z,10.5
2015-10-23T01:33:22.282Z,10.4
2015-10-23T01:34:22.237Z,10.3
2015-10-23T01:35:22.177Z,10.4
2015-10-23T01:36:22.132Z,10.4
2015-10-23T01:37:22.073Z,10.4
2015-10-23T01:38:22.013Z,10.4
2015-10-23T01:39:21.969Z,10.4
2015-10-23T01:40:21.926Z,10.3
2015-10-23T01:41:21.865Z,10.3
2015-10-23T01:42:21.806Z,10.3
2015-10-23T01:43:21.762Z,10.4
2015-10-23T01:44:21.701Z,10.3
2015-10-23T01:45:21.658Z,10.4
2015-10-23T01:46:21.598Z,10.4
2015-10-23T01:47:21.538Z,10.4
2015-10-23T01:48:21.493Z,10.4
2015-10-23T01:49:21.434Z,10.3
2015-10-23T01:50:21.390Z,10.3
2015-10-23T01:51:21.331Z,10.3
2015-10-23T01:52:21.286Z,10.3
2015-10-23T01:53:21.226Z,10.3
2015-10-23T01:54:21.181Z,10.3
2015-10-23T01:55:21.123Z,10.3
2015-10-23T01:56:21.062Z,10.3
2015-10-23T01:57:21.018Z,10.4
2015-10-23T01:58:20.958Z,10.3
2015-10-23T01:59:20.914Z,10.3
2015-10-23T02:00:20.855Z,10.3
2015-10-23T02:01:20.811Z,10.3
2015-10-23T02:02:20.766Z,10.3
2015-10-23T02:03:20.706Z,10.3
2015-10-23T02:04:20.647Z,10.3
2015-10-23T02:05:20.586Z,10.3
2015-10-23T02:06:20.542Z,10.2
2015-10-23T02:07:20.483Z,10.2
2015-10-23T02:08:20.439Z,10.2
2015-10-23T02:09:20.380Z,10.2
2015-10-23T02:10:20.335Z,10.2
2015-10-23T02:11:20.275Z,10.2
2015-10-23T02:12:20.231Z,10.2
2015-10-23T02:13:20.171Z,10.2
2015-10-23T02:14:20.111Z,10.2
2015-10-23T02:15:20.067Z,10.2
2015-10-23T02:16:20.007Z,10.2
2015-10-23T02:17:19.963Z,10.2
2015-10-23T02:18:19.904Z,10.3
2015-10-23T02:19:19.860Z,10.3
2015-10-23T02:20:19.800Z,10.3
2015-10-23T02:21:19.755Z,10.3
2015-10-23T02:22:19.696Z,10.3
2015-10-23T02:23:19.636Z,10.3
2015-10-23T02:24:19.592Z,10.3
2015-10-23T02:25:19.532Z,10.3
2015-10-23T02:26:19.488Z,10.4
2015-10-23T02:27:19.426Z,10.4
2015-10-23T02:28:19.381Z,10.4
2015-10-23T02:29:19.321Z,10.3
2015-10-23T02:30:19.266Z,10.3
2015-10-23T02:31:19.221Z,10.4
2015-10-23T02:32:19.161Z,10.4
2015-10-23T02:33:19.117Z,10.4
2015-10-23T02:34:19.058Z,10.4
2015-10-23T02:35:19.014Z,10.3
2015-10-23T02:36:18.953Z,10.4
2015-10-23T02:37:18.894Z,10.4
2015-10-23T02:38:18.849Z,10.4
2015-10-23T02:39:18.805Z,10.3
2015-10-23T02:40:18.761Z,10.3
2015-10-23T02:41:18.686Z,10.3
2015-10-23T02:42:18.641Z,10.3
2015-10-23T02:43:18.582Z,10.3
2015-10-23T02:44:18.522Z,10.2
2015-10-23T02:45:18.478Z,10.2
2015-10-23T02:46:18.418Z,10.2
2015-10-23T02:47:18.374Z,10.2
2015-10-23T02:48:18.315Z,10.2
2015-10-23T02:49:18.271Z,10.2
2015-10-23T02:50:18.210Z,10.2
2015-10-23T02:51:18.166Z,10.2
2015-10-23T02:52:18.107Z,10.2
2015-10-23T02:53:18.046Z,10.3
2015-10-23T02:54:18.003Z,10.3
2015-10-23T02:55:17.943Z,10.3
2015-10-23T02:56:17.899Z,10.3
2015-10-23T02:57:17.839Z,10.3
2015-10-23T02:58:17.795Z,10.3
2015-10-23T02:59:17.735Z,10.3
2015-10-23T03:00:17.690Z,10.3
2015-10-23T03:01:17.631Z,10.3
2015-10-23T03:02:17.571Z,10.3
2015-10-23T03:03:17.512Z,10.3
2015-10-23T03:04:17.467Z,10.4
2015-10-23T03:05:17.407Z,10.4
2015-10-23T03:06:17.363Z,10.4
2015-10-23T03:07:17.301Z,10.3
2015-10-23T03:08:17.242Z,10.4
2015-10-23T03:09:17.169Z,10.4
2015-10-23T03:10:17.110Z,10.4
2015-10-23T03:11:17.036Z,10.3
2015-10-23T03:12:16.966Z,10.4
2015-10-23T03:13:16.916Z,10.3
2015-10-23T03:14:16.851Z,10.3
2015-10-23T03:15:16.802Z,10.4
2015-10-23T03:16:16.737Z,10.4
2015-10-23T03:17:16.689Z,10.4
2015-10-23T03:18:16.628Z,10.4
2015-10-23T03:19:16.582Z,10.4
2015-10-23T03:20:16.519Z,10.4
2015-10-23T03:21:16.520Z,10.3
2015-10-23T03:22:16.412Z,10.4
2015-10-23T03:23:16.352Z,10.4
2015-10-23T03:24:16.309Z,10.4
2015-10-23T03:25:16.247Z,10.4
2015-10-23T03:26:16.203Z,10.4
2015-10-23T03:27:16.143Z,10.4
2015-10-23T03:28:16.083Z,10.4
2015-10-23T03:29:16.038Z,10.4
2015-10-23T03:30:15.978Z,10.4
2015-10-23T03:31:15.934Z,10.4
2015-10-23T03:32:15.873Z,10.4
2015-10-23T03:33:15.829Z,10.4
2015-10-23T03:34:15.769Z,10.4
2015-10-23T03:35:15.725Z,10.4
2015-10-23T03:36:15.666Z,10.4
2015-10-23T03:37:15.622Z,10.4
2015-10-23T03:38:15.561Z,10.4
2015-10-23T03:39:15.517Z,10.5
2015-10-23T03:40:15.458Z,10.5
2015-10-23T03:41:15.398Z,10.4
2015-10-23T03:42:15.354Z,10.4
2015-10-23T03:43:15.310Z,10.4
2015-10-23T03:44:15.250Z,10.4
2015-10-23T03:45:15.190Z,10.4
2015-10-23T03:46:15.146Z,10.4
2015-10-23T03:47:15.086Z,10.5
2015-10-23T03:48:15.024Z,10.4
2015-10-23T03:49:15.104Z,10.4
2015-10-23T03:50:14.919Z,10.5
2015-10-23T03:51:14.876Z,10.5
2015-10-23T03:52:14.832Z,10.5
2015-10-23T03:53:14.771Z,10.5
2015-10-23T03:54:14.712Z,10.5
2015-10-23T03:55:14.651Z,10.5
2015-10-23T03:56:14.607Z,10.5
2015-10-23T03:57:14.548Z,10.4
2015-10-23T03:58:14.504Z,10.5
2015-10-23T03:59:14.443Z,10.5
2015-10-23T04:00:14.400Z,10.5
2015-10-23T04:01:14.340Z,10.5
2015-10-23T04:02:14.296Z,10.4
2015-10-23T04:03:14.236Z,10.5
2015-10-23T04:04:14.193Z,10.5
2015-10-23T04:05:14.132Z,10.5
2015-10-23T04:06:14.088Z,10.5
2015-10-23T04:07:14.028Z,10.4
2015-10-23T04:08:13.984Z,10.5
2015-10-23T04:09:13.925Z,10.5
2015-10-23T04:10:13.865Z,10.5
2015-10-23T04:11:13.820Z,10.5
2015-10-23T04:12:13.761Z,10.5
2015-10-23T04:13:13.700Z,10.5
2015-10-23T04:14:13.657Z,10.5
2015-10-23T04:15:13.597Z,10.5
2015-10-23T04:16:13.553Z,10.5
2015-10-23T04:17:13.493Z,10.5
2015-10-23T04:18:13.450Z,10.5
2015-10-23T04:19:13.389Z,10.5
2015-10-23T04:20:13.345Z,10.4
2015-10-23T04:21:13.285Z,10.5
2015-10-23T04:22:13.241Z,10.5
2015-10-23T04:23:13.181Z,10.5
2015-10-23T04:24:13.122Z,10.5
2015-10-23T04:25:13.061Z,10.4
2015-10-23T04:26:13.017Z,10.4
2015-10-23T04:27:12.957Z,10.5
2015-10-23T04:28:12.913Z,10.4
2015-10-23T04:29:12.854Z,10.4
2015-10-23T04:30:12.794Z,10.4
2015-10-23T04:31:12.749Z,10.4
2015-10-23T04:32:12.690Z,10.4
2015-10-23T04:33:12.630Z,10.5
2015-10-23T04:34:12.585Z,10.5
2015-10-23T04:35:12.526Z,10.5
2015-10-23T04:36:12.483Z,10.5
2015-10-23T04:37:12.438Z,10.5
2015-10-23T04:38:12.379Z,10.5
2015-10-23T04:39:12.334Z,10.5
2015-10-23T04:40:12.274Z,10.4
2015-10-23T04:41:12.215Z,10.5
2015-10-23T04:42:12.170Z,10.4
2015-10-23T04:43:12.110Z,10.4
2015-10-23T04:44:12.069Z,10.4
2015-10-23T04:45:11.991Z,10.4
2015-10-23T04:46:11.971Z,10.4
2015-10-23T04:47:11.896Z,10.4
2015-10-23T04:48:11.852Z,10.4
2015-10-23T04:49:11.777Z,10.4
2015-10-23T04:50:11.733Z,10.3
2015-10-23T04:51:11.673Z,10.4
2015-10-23T04:52:11.628Z,10.4
2015-10-23T04:53:11.568Z,10.4
2015-10-23T04:54:11.524Z,10.3
2015-10-23T04:55:11.465Z,10.3
2015-10-23T04:56:11.404Z,10.3
2015-10-23T04:57:11.361Z,10.3
2015-10-23T04:58:11.301Z,10.4
2015-10-23T04:59:11.257Z,10.3
2015-10-23T05:00:11.197Z,10.4
2015-10-23T05:01:11.138Z,10.4
2015-10-23T05:02:11.093Z,10.3
2015-10-23T05:03:11.033Z,10.3
2015-10-23T05:04:10.973Z,10.4
2015-10-23T05:05:10.929Z,10.3
2015-10-23T05:06:10.885Z,10.3
2015-10-23T05:07:10.826Z,10.3
2015-10-23T05:08:10.766Z,10.3
2015-10-23T05:09:10.721Z,10.3
2015-10-23T05:10:10.659Z,10.3
2015-10-23T05:11:10.615Z,10.3
2015-10-23T05:12:10.554Z,10.3
2015-10-23T05:13:10.495Z,10.2
2015-10-23T05:14:10.451Z,10.2
2015-10-23T05:15:10.391Z,10.2
2015-10-23T05:16:10.331Z,10.2
2015-10-23T05:17:10.286Z,10.2
2015-10-23T05:18:10.227Z,10.2
2015-10-23T05:19:10.183Z,10.2
2015-10-23T05:20:10.123Z,10.2
2015-10-23T05:21:10.078Z,10.2
2015-10-23T05:22:10.020Z,10.2
2015-10-23T05:23:09.975Z,10.2
2015-10-23T05:24:09.916Z,10.2
2015-10-23T05:25:09.856Z,10.2
2015-10-23T05:26:09.811Z,10.2
2015-10-23T05:27:09.752Z,10.2
2015-10-23T05:28:09.691Z,10.2
2015-10-23T05:29:09.648Z,10.2
2015-10-23T05:30:09.588Z,10.2
2015-10-23T05:31:09.543Z,10.2
2015-10-23T05:32:09.499Z,10.1
2015-10-23T05:33:09.440Z,10.2
2015-10-23T05:34:09.380Z,10.2
2015-10-23T05:35:09.321Z,10.2
2015-10-23T05:36:09.276Z,10.2
2015-10-23T05:37:09.216Z,10.3
2015-10-23T05:38:09.172Z,10.3
2015-10-23T05:39:09.127Z,10.2
2015-10-23T05:40:09.069Z,10.1
2015-10-23T05:41:09.009Z,10.1
2015-10-23T05:42:08.949Z,10.1
2015-10-23T05:43:08.904Z,10.2
2015-10-23T05:44:08.861Z,10.2
2015-10-23T05:45:08.801Z,10.1
2015-10-23T05:46:08.740Z,10.1
2015-10-23T05:47:08.697Z,10.1
2015-10-23T05:48:08.637Z,10.1
2015-10-23T05:49:08.577Z,10.1
2015-10-23T05:50:08.533Z,10.1
2015-10-23T05:51:08.473Z,10.1
2015-10-23T05:52:08.429Z,10.1
2015-10-23T05:53:08.370Z,10.2
2015-10-23T05:54:08.326Z,10.1
2015-10-23T05:55:08.265Z,10.2
2015-10-23T05:56:08.221Z,10.2
2015-10-23T05:57:08.161Z,10.2
2015-10-23T05:58:08.101Z,10.2
2015-10-23T05:59:08.057Z,10.2
2015-10-23T06:00:07.998Z,10.1
2015-10-23T06:01:07.954Z,10.1
2015-10-23T06:02:07.894Z,10.1
2015-10-23T06:03:07.834Z,10.1
2015-10-23T06:04:07.790Z,10.1
2015-10-23T06:05:07.730Z,10.1
2015-10-23T06:06:07.686Z,10
2015-10-23T06:07:07.626Z,10
2015-10-23T06:08:07.567Z,10
2015-10-23T06:09:07.522Z,9.9
2015-10-23T06:10:07.462Z,9.9
2015-10-23T06:11:07.497Z,9.9
2015-10-23T06:12:07.359Z,10
2015-10-23T06:13:07.314Z,9.9
2015-10-23T06:14:07.255Z,10
2015-10-23T06:15:07.194Z,10
2015-10-23T06:16:07.151Z,9.9
2015-10-23T06:17:07.106Z,9.9
2015-10-23T06:18:07.047Z,9.9
2015-10-23T06:19:06.987Z,9.9
2015-10-23T06:20:06.943Z,9.9
2015-10-23T06:21:06.883Z,9.9
2015-10-23T06:22:06.839Z,9.9
2015-10-23T06:23:06.780Z,9.9
2015-10-23T06:24:06.719Z,9.9
2015-10-23T06:25:06.675Z,10
2015-10-23T06:26:06.616Z,9.9
2015-10-23T06:27:06.555Z,9.9
2015-10-23T06:28:06.511Z,10
2015-10-23T06:29:06.452Z,10
2015-10-23T06:30:06.407Z,10
2015-10-23T06:31:06.348Z,10.1
2015-10-23T06:32:06.301Z,10.2
2015-10-23T06:33:06.241Z,10.2
2015-10-23T06:34:06.196Z,10.2
2015-10-23T06:35:06.137Z,10.3
2015-10-23T06:36:06.077Z,10.3
2015-10-23T06:37:06.033Z,10.2
2015-10-23T06:38:05.974Z,10.2
2015-10-23T06:39:05.929Z,10.2
2015-10-23T06:40:05.870Z,10.3
2015-10-23T06:41:05.826Z,10.4
2015-10-23T06:42:05.766Z,10.5
2015-10-23T06:43:05.721Z,10.5
2015-10-23T06:44:05.662Z,10.5
2015-10-23T06:45:05.617Z,10.5
2015-10-23T06:46:05.557Z,10.7
2015-10-23T06:47:05.498Z,10.6
2015-10-23T06:48:05.454Z,10.7
2015-10-23T06:49:05.394Z,10.7
2015-10-23T06:50:05.350Z,10.6
2015-10-23T06:51:05.289Z,10.7
2015-10-23T06:52:05.230Z,10.7
2015-10-23T06:53:05.186Z,10.8
2015-10-23T06:54:05.126Z,10.8
2015-10-23T06:55:05.082Z,10.8
2015-10-23T06:56:05.022Z,10.7
2015-10-23T06:57:04.978Z,10.6
2015-10-23T06:58:04.919Z,10.5
2015-10-23T06:59:04.875Z,10.6
2015-10-23T07:00:04.814Z,10.7
2015-10-23T07:01:04.770Z,10.8
2015-10-23T07:02:04.711Z,10.9
2015-10-23T07:03:04.666Z,10.8
2015-10-23T07:04:04.606Z,11
2015-10-23T07:05:04.563Z,11.1
2015-10-23T07:06:04.502Z,11.2
2015-10-23T07:07:04.443Z,11.2
2015-10-23T07:08:04.399Z,11.3
2015-10-23T07:09:04.339Z,11.1
2015-10-23T07:10:04.295Z,11.1
2015-10-23T07:11:04.235Z,11.2
2015-10-23T07:12:04.191Z,11.2
2015-10-23T07:13:04.131Z,11.1
2015-10-23T07:14:04.087Z,11.1
2015-10-23T07:15:04.027Z,11.2
2015-10-23T07:16:03.968Z,11.2
2015-10-23T07:17:03.923Z,11.3
2015-10-23T07:18:03.863Z,11.2
2015-10-23T07:19:03.804Z,11.2
2015-10-23T07:20:03.760Z,11.2
2015-10-23T07:21:03.715Z,11.3
2015-10-23T07:22:03.655Z,11.3
2015-10-23T07:23:03.596Z,11.2
2015-10-23T07:24:03.551Z,11.1
2015-10-23T07:25:03.493Z,11.2
2015-10-23T07:26:03.432Z,11.2
2015-10-23T07:27:03.388Z,11.1
2015-10-23T07:28:03.329Z,11.2
2015-10-23T07:29:03.284Z,11.2
2015-10-23T07:30:03.225Z,11.1
2015-10-23T07:31:03.180Z,11.3
2015-10-23T07:32:03.120Z,11.4
2015-10-23T07:33:03.076Z,11.5
2015-10-23T07:34:03.017Z,11.6
2015-10-23T07:35:02.973Z,11.3
2015-10-23T07:36:02.912Z,11.3
2015-10-23T07:37:02.853Z,11.4
2015-10-23T07:38:02.809Z,11.3
2015-10-23T07:39:02.749Z,11.4
2015-10-23T07:40:02.689Z,11.4
2015-10-23T07:41:02.645Z,11.5
2015-10-23T07:42:02.585Z,11.5
2015-10-23T07:43:02.541Z,11.5
2015-10-23T07:44:02.482Z,11.5
2015-10-23T07:45:02.437Z,11.6
2015-10-23T07:46:02.377Z,11.5
2015-10-23T07:47:02.314Z,11.6
2015-10-23T07:48:02.270Z,11.6
2015-10-23T07:49:02.226Z,11.6
2015-10-23T07:50:02.166Z,11.5
2015-10-23T07:51:02.122Z,11.6
2015-10-23T07:52:02.078Z,11.6
2015-10-23T07:53:02.003Z,11.7
2015-10-23T07:54:01.958Z,11.8
2015-10-23T07:55:01.899Z,11.7
2015-10-23T07:56:01.855Z,11.6
2015-10-23T07:57:01.794Z,11.6
2015-10-23T07:58:01.736Z,11.5
2015-10-23T07:59:01.691Z,11.6
2015-10-23T08:00:01.631Z,11.7
2015-10-23T08:01:01.587Z,11.8
2015-10-23T08:02:01.527Z,11.8
2015-10-23T08:03:01.483Z,11.8
2015-10-23T08:04:01.424Z,11.8
2015-10-23T08:05:01.379Z,11.8
2015-10-23T08:06:01.319Z,11.7
2015-10-23T08:07:01.275Z,11.6
2015-10-23T08:08:01.216Z,11.8
2015-10-23T08:09:01.156Z,11.9
2015-10-23T08:10:01.112Z,11.8
2015-10-23T08:11:01.052Z,11.9
2015-10-23T08:12:01.007Z,11.8
2015-10-23T08:13:00.948Z,11.8
2015-10-23T08:14:00.904Z,11.7
2015-10-23T08:15:00.844Z,11.6
2015-10-23T08:16:00.785Z,11.7
2015-10-23T08:17:00.740Z,11.9
2015-10-23T08:18:00.680Z,12
2015-10-23T08:19:00.637Z,11.9
2015-10-23T08:20:00.576Z,12
2015-10-23T08:21:00.532Z,12
2015-10-23T08:22:00.473Z,12
2015-10-23T08:23:00.413Z,12
2015-10-23T08:24:00.369Z,12
2015-10-23T08:25:00.310Z,12
2015-10-23T08:26:00.249Z,12
2015-10-23T08:27:00.205Z,12.1
2015-10-23T08:28:00.146Z,12.1
2015-10-23T08:29:00.102Z,12
2015-10-23T08:30:00.042Z,12.1
2015-10-23T08:30:59.997Z,12.1
2015-10-23T08:31:59.937Z,12.1
2015-10-23T08:32:59.879Z,12.3
2015-10-23T08:33:59.834Z,12.2
2015-10-23T08:34:59.774Z,12.3
2015-10-23T08:35:59.715Z,12.4
2015-10-23T08:36:59.671Z,12.4
2015-10-23T08:37:59.610Z,12.4
2015-10-23T08:38:59.567Z,12.3
2015-10-23T08:39:59.507Z,12.3
2015-10-23T08:40:59.463Z,12.4
2015-10-23T08:41:59.401Z,12.4
2015-10-23T08:42:59.356Z,12.6
2015-10-23T08:43:59.296Z,12.6
2015-10-23T08:44:59.251Z,12.7
2015-10-23T08:45:59.192Z,12.5
2015-10-23T08:46:59.148Z,12.5
2015-10-23T08:47:59.088Z,12.4
2015-10-23T08:48:59.045Z,12.3
2015-10-23T08:49:58.984Z,12.3
2015-10-23T08:50:58.925Z,12.4
2015-10-23T08:51:58.881Z,12.5
2015-10-23T08:52:58.837Z,12.6
2015-10-23T08:53:58.776Z,12.6
2015-10-23T08:54:58.717Z,12.6
2015-10-23T08:55:58.656Z,12.4
2015-10-23T08:56:58.628Z,12.5
2015-10-23T08:57:58.569Z,12.5
2015-10-23T08:58:58.509Z,12.5
2015-10-23T08:59:58.465Z,12.6
2015-10-23T09:00:58.405Z,12.6
2015-10-23T09:01:58.345Z,12.6
2015-10-23T09:02:58.300Z,12.7
2015-10-23T09:03:58.241Z,12.8
2015-10-23T09:04:58.198Z,12.8
2015-10-23T09:05:58.138Z,12.9
2015-10-23T09:06:58.093Z,12.9
2015-10-23T09:07:58.034Z,13
2015-10-23T09:08:57.990Z,12.9
2015-10-23T09:09:57.930Z,12.9
2015-10-23T09:10:57.886Z,12.9
2015-10-23T09:11:57.826Z,13
2015-10-23T09:12:57.782Z,12.9
2015-10-23T09:13:57.722Z,12.9
2015-10-23T09:14:57.677Z,12.9
2015-10-23T09:15:57.634Z,12.8
2015-10-23T09:16:57.575Z,12.9
2015-10-23T09:17:57.515Z,12.9
2015-10-23T09:18:57.470Z,12.9
2015-10-23T09:19:57.411Z,12.9
2015-10-23T09:20:57.366Z,12.9
2015-10-23T09:21:57.307Z,13
2015-10-23T09:22:57.263Z,13.1
2015-10-23T09:23:57.202Z,13
2015-10-23T09:24:57.158Z,12.9
2015-10-23T09:25:57.099Z,12.8
2015-10-23T09:26:57.039Z,12.7
2015-10-23T09:27:56.994Z,12.7
2015-10-23T09:28:56.935Z,12.8
2015-10-23T09:29:56.891Z,13
2015-10-23T09:30:56.829Z,13.1
2015-10-23T09:31:56.785Z,13.1
2015-10-23T09:32:56.724Z,12.9
2015-10-23T09:33:56.665Z,12.9
2015-10-23T09:34:56.620Z,13
2015-10-23T09:35:56.577Z,12.9
2015-10-23T09:36:56.516Z,13.1
2015-10-23T09:37:56.457Z,13.1
2015-10-23T09:38:56.413Z,13.1
2015-10-23T09:39:56.353Z,13.2
2015-10-23T09:40:56.309Z,13.2
2015-10-23T09:41:56.265Z,13.3
2015-10-23T09:42:56.204Z,13.3
2015-10-23T09:43:56.145Z,13.3
2015-10-23T09:44:56.102Z,13.2
2015-10-23T09:45:56.041Z,13.2
2015-10-23T09:46:55.998Z,13.3
2015-10-23T09:47:55.937Z,13.3
2015-10-23T09:48:55.893Z,13.3
2015-10-23T09:49:55.834Z,13.4
2015-10-23T09:50:55.789Z,13.4
2015-10-23T09:51:55.729Z,13.4
2015-10-23T09:52:55.685Z,13.5
2015-10-23T09:53:55.626Z,13.5
2015-10-23T09:54:55.582Z,13.3
2015-10-23T09:55:55.523Z,13.3
2015-10-23T09:56:55.478Z,13.3
2015-10-23T09:57:55.426Z,13.4
2015-10-23T09:58:55.366Z,13.3
2015-10-23T09:59:55.323Z,13.3
2015-10-23T10:00:55.262Z,13.4
2015-10-23T10:01:55.218Z,13.4
2015-10-23T10:02:55.159Z,13.4
2015-10-23T10:03:55.115Z,13.5
2015-10-23T10:04:55.054Z,13.6
2015-10-23T10:05:55.011Z,13.6
2015-10-23T10:06:54.950Z,13.7
2015-10-23T10:07:54.892Z,13.8
2015-10-23T10:08:54.847Z,13.8
2015-10-23T10:09:54.803Z,13.9
2015-10-23T10:10:54.743Z,13.8
2015-10-23T10:11:54.683Z,13.8
2015-10-23T10:12:54.639Z,13.8
2015-10-23T10:13:54.579Z,13.7
2015-10-23T10:14:54.535Z,13.6
2015-10-23T10:15:54.475Z,13.5
2015-10-23T10:16:54.431Z,13.6
2015-10-23T10:17:54.371Z,13.5
2015-10-23T10:18:54.324Z,13.4
2015-10-23T10:19:54.264Z,13.4
2015-10-23T10:20:54.220Z,13.3
2015-10-23T10:21:54.161Z,13.3
2015-10-23T10:22:54.117Z,13.5
2015-10-23T10:23:54.058Z,13.5
2015-10-23T10:24:53.997Z,13.5
2015-10-23T10:25:53.953Z,13.6
2015-10-23T10:26:53.909Z,13.7
2015-10-23T10:27:53.849Z,13.7
2015-10-23T10:28:53.805Z,13.7
2015-10-23T10:29:53.744Z,13.7
2015-10-23T10:30:53.702Z,13.8
2015-10-23T10:31:53.641Z,13.8
2015-10-23T10:32:53.582Z,13.8
2015-10-23T10:33:53.538Z,13.8
2015-10-23T10:34:53.478Z,13.9
2015-10-23T10:35:53.434Z,13.7
2015-10-23T10:36:53.374Z,13.7
2015-10-23T10:37:53.330Z,13.8
2015-10-23T10:38:53.270Z,13.8
2015-10-23T10:39:53.241Z,13.7
2015-10-23T10:40:53.182Z,13.8
2015-10-23T10:41:53.122Z,13.8
2015-10-23T10:42:53.063Z,13.9
2015-10-23T10:43:53.019Z,14
2015-10-23T10:44:52.958Z,13.9
2015-10-23T10:45:52.914Z,13.8
2015-10-23T10:46:52.870Z,13.9
2015-10-23T10:47:52.810Z,13.8
2015-10-23T10:48:52.751Z,13.8
2015-10-23T10:49:52.706Z,13.9
2015-10-23T10:50:52.646Z,14
2015-10-23T10:51:52.602Z,13.9
2015-10-23T10:52:52.558Z,13.9
2015-10-23T10:53:52.499Z,13.9
2015-10-23T10:54:52.438Z,14.1
2015-10-23T10:55:52.395Z,14.1
2015-10-23T10:56:52.335Z,13.9
2015-10-23T10:57:52.291Z,13.8
2015-10-23T10:58:52.232Z,13.9
2015-10-23T10:59:52.187Z,14
2015-10-23T11:00:52.127Z,14.1
2015-10-23T11:01:52.083Z,14
2015-10-23T11:02:52.023Z,14
2015-10-23T11:03:51.980Z,14.1
2015-10-23T11:04:51.920Z,14.1
2015-10-23T11:05:51.875Z,14.2
2015-10-23T11:06:51.812Z,14.1
2015-10-23T11:07:51.765Z,14.1
2015-10-23T11:08:51.708Z,14.1
2015-10-23T11:09:51.663Z,14.2
2015-10-23T11:10:51.603Z,14.3
2015-10-23T11:11:51.560Z,14.4
2015-10-23T11:12:51.499Z,14.5
2015-10-23T11:13:51.439Z,14.5
2015-10-23T11:14:51.396Z,14.4
2015-10-23T11:15:51.351Z,14.4
2015-10-23T11:16:51.291Z,14.6
2015-10-23T11:17:51.231Z,14.6
2015-10-23T11:18:51.187Z,14.5
2015-10-23T11:19:51.127Z,14.5
2015-10-23T11:20:51.084Z,14.3
2015-10-23T11:21:51.028Z,14.2
2015-10-23T11:22:50.984Z,14.3
2015-10-23T11:23:50.925Z,14.3
2015-10-23T11:24:50.881Z,14.3
2015-10-23T11:25:50.821Z,14.4
2015-10-23T11:26:50.776Z,14.3
2015-10-23T11:27:50.717Z,14.2
2015-10-23T11:28:50.673Z,14.2
2015-10-23T11:29:50.613Z,14.1
2015-10-23T11:30:50.570Z,14.1
2015-10-23T11:31:50.509Z,14.2
2015-10-23T11:32:50.465Z,14.2
2015-10-23T11:33:50.405Z,14.2
2015-10-23T11:34:50.361Z,14.2
2015-10-23T11:35:50.301Z,14.1
2015-10-23T11:36:50.257Z,14
2015-10-23T11:37:50.197Z,14
2015-10-23T11:38:50.154Z,13.9
2015-10-23T11:39:50.094Z,13.8
2015-10-23T11:40:50.050Z,13.8
2015-10-23T11:41:49.989Z,13.8
2015-10-23T11:42:49.945Z,13.8
2015-10-23T11:43:49.886Z,13.8
2015-10-23T11:44:49.842Z,13.7
2015-10-23T11:45:49.782Z,13.7
2015-10-23T11:46:49.723Z,13.7
2015-10-23T11:47:49.678Z,13.7
2015-10-23T11:48:49.619Z,13.7
2015-10-23T11:49:49.574Z,13.7
2015-10-23T11:50:49.514Z,13.7
2015-10-23T11:51:49.470Z,13.7
2015-10-23T11:52:49.411Z,13.8
2015-10-23T11:53:49.366Z,13.8
2015-10-23T11:54:49.306Z,13.9
2015-10-23T11:55:49.263Z,13.9
2015-10-23T11:56:49.203Z,13.9
2015-10-23T11:57:49.159Z,13.9
2015-10-23T11:58:49.097Z,14
2015-10-23T11:59:49.052Z,14.1
2015-10-23T12:00:48.992Z,14
2015-10-23T12:01:48.948Z,14.1
2015-10-23T12:02:48.888Z,14
2015-10-23T12:03:48.844Z,14
2015-10-23T12:04:48.784Z,14.1
2015-10-23T12:05:48.740Z,14.2
2015-10-23T12:06:48.680Z,14.2
2015-10-23T12:07:48.636Z,14.3
2015-10-23T12:08:48.577Z,14.2
2015-10-23T12:09:48.532Z,14.2
2015-10-23T12:10:48.472Z,14.2
2015-10-23T12:11:48.429Z,14.1
2015-10-23T12:12:48.368Z,14.1
2015-10-23T12:13:48.321Z,14
2015-10-23T12:14:48.251Z,14
2015-10-23T12:15:48.198Z,14
2015-10-23T12:16:48.127Z,14
2015-10-23T12:17:48.073Z,14
2015-10-23T12:18:48.008Z,13.9
2015-10-23T12:19:47.960Z,14
2015-10-23T12:20:47.897Z,14
2015-10-23T12:21:47.849Z,14
2015-10-23T12:22:47.785Z,13.9
2015-10-23T12:23:47.739Z,13.9
2015-10-23T12:24:47.678Z,13.9
2015-10-23T12:25:47.633Z,13.8
2015-10-23T12:26:47.571Z,13.8
2015-10-23T12:27:47.527Z,13.7
2015-10-23T12:28:47.466Z,13.7
2015-10-23T12:29:47.422Z,13.7
2015-10-23T12:30:47.362Z,13.7
2015-10-23T12:31:47.301Z,13.6
2015-10-23T12:32:47.257Z,13.5
2015-10-23T12:33:47.212Z,13.5
2015-10-23T12:34:47.153Z,13.5
2015-10-23T12:35:47.108Z,13.5
2015-10-23T12:36:47.048Z,13.5
2015-10-23T12:37:47.004Z,13.6
2015-10-23T12:38:46.943Z,13.7
2015-10-23T12:39:46.884Z,13.6
2015-10-23T12:40:46.840Z,13.5
2015-10-23T12:41:46.780Z,13.6
2015-10-23T12:42:46.736Z,13.6
2015-10-23T12:43:46.676Z,13.6
2015-10-23T12:44:46.632Z,13.5
2015-10-23T12:45:46.570Z,13.6
2015-10-23T12:46:46.510Z,13.6
2015-10-23T12:47:46.621Z,13.5
2015-10-23T12:48:46.406Z,13.4
2015-10-23T12:49:46.361Z,13.3
2015-10-23T12:50:46.301Z,13.3
2015-10-23T12:51:46.257Z,13.3
2015-10-23T12:52:46.198Z,13.3
2015-10-23T12:53:46.154Z,13.4
2015-10-23T12:54:46.094Z,13.4
2015-10-23T12:55:46.050Z,13.3
2015-10-23T12:56:46.005Z,13.3
2015-10-23T12:57:45.946Z,13.4
2015-10-23T12:58:45.886Z,13.4
2015-10-23T12:59:45.826Z,13.3
2015-10-23T13:00:45.781Z,13.4
2015-10-23T13:01:45.739Z,13.3
2015-10-23T13:02:45.695Z,13.4
2015-10-23T13:03:45.618Z,13.5
2015-10-23T13:04:45.575Z,13.8
2015-10-23T13:05:45.531Z,14
2015-10-23T13:06:45.470Z,14.3
2015-10-23T13:07:45.425Z,14.5
2015-10-23T13:08:45.366Z,14.6
2015-10-23T13:09:45.322Z,14.8
2015-10-23T13:10:45.263Z,14.9
2015-10-23T13:11:45.218Z,15
2015-10-23T13:12:45.159Z,15.1
2015-10-23T13:13:45.115Z,15.1
2015-10-23T13:14:45.054Z,15.3
2015-10-23T13:15:45.010Z,15.6
2015-10-23T13:16:44.950Z,15.9
2015-10-23T13:17:44.907Z,16.5
2015-10-23T13:18:44.847Z,16.8
2015-10-23T13:19:44.803Z,17.2
2015-10-23T13:20:44.758Z,17.6
2015-10-23T13:21:44.699Z,17.8